Time;durP1;ratioP1;P1;durP2;ratioP2;P2;SDS_P1;SDS_P2;PMS_P1;PMS_P2;Temp;Humidity;BMP_temperature;BMP_pressure;BME280_temperature;BME280_humidity;BME280_pressure;Samples;Min_cycle;Max_cycle;Signal;HPM_P1;HPM_P2
2021/01/30 00:02:28;;;;;;;3.70;1.60;;;;;;;6.89;60.56;99607.38;8009963;28;20139;-64
2021/01/30 00:06:18;;;;;;;6.75;2.42;;;;;;;6.88;60.28;99608.34;8009938;28;20089;-64
2021/01/30 00:10:09;;;;;;;4.90;1.70;;;;;;;6.88;60.63;99610.97;8010404;28;20124;-64
2021/01/30 00:14:00;;;;;;;4.00;1.40;;;;;;;6.87;60.36;99611.91;8008095;28;20053;-64
2021/01/30 00:17:52;;;;;;;3.13;1.75;;;;;;;6.88;60.14;99617.97;8005156;28;20525;-64
2021/01/30 00:21:50;;;;;;;8.65;1.90;;;;;;;6.86;60.06;99609.38;8003909;28;20048;-63
2021/01/30 00:25:40;;;;;;;5.13;2.08;;;;;;;6.84;60.10;99606.06;8002800;28;20037;-63
2021/01/30 00:29:33;;;;;;;5.25;2.08;;;;;;;6.83;60.17;99599.16;8002811;28;20037;-63
2021/01/30 00:33:23;;;;;;;4.88;2.08;;;;;;;6.80;60.33;99605.41;8002679;28;20562;-63
2021/01/30 00:37:20;;;;;;;4.13;1.67;;;;;;;6.81;60.47;99607.09;8003101;28;20033;-65
2021/01/30 00:41:11;;;;;;;5.45;2.13;;;;;;;6.79;60.15;99618.59;8003242;28;20825;-61
2021/01/30 00:45:05;;;;;;;5.00;1.88;;;;;;;6.77;60.35;99615.25;8004018;28;20116;-62
2021/01/30 00:48:56;;;;;;;5.43;2.03;;;;;;;6.74;60.36;99618.91;8002484;28;20194;-65
2021/01/30 00:52:47;;;;;;;3.45;1.50;;;;;;;6.77;59.94;99617.84;7985135;28;20025;-66
2021/01/30 00:56:48;;;;;;;4.35;1.50;;;;;;;6.76;60.31;99624.84;7985004;28;20025;-65
2021/01/30 01:00:38;;;;;;;3.60;1.52;;;;;;;6.70;60.35;99617.44;7985862;28;20044;-64
2021/01/30 01:04:35;;;;;;;3.30;1.55;;;;;;;6.59;60.23;99615.53;7986835;28;20048;-64
2021/01/30 01:08:26;;;;;;;5.50;1.90;;;;;;;6.63;60.23;99625.78;8004187;28;20116;-63
2021/01/30 01:12:17;;;;;;;5.18;2.25;;;;;;;6.59;60.22;99639.03;8005092;28;20047;-62
2021/01/30 01:16:07;;;;;;;6.63;2.38;;;;;;;6.56;60.13;99647.09;8004678;28;20186;-64
2021/01/30 01:19:58;;;;;;;4.00;1.85;;;;;;;6.51;59.81;99641.34;8003928;28;20155;-64
2021/01/30 01:23:49;;;;;;;3.53;1.63;;;;;;;6.46;59.48;99648.66;8001562;28;20041;-64
2021/01/30 01:27:40;;;;;;;3.63;1.45;;;;;;;6.39;59.68;99643.94;8001844;28;20177;-64
2021/01/30 01:31:30;;;;;;;4.35;1.83;;;;;;;6.31;59.65;99636.66;7997789;28;20301;-64
2021/01/30 01:35:24;;;;;;;5.80;2.00;;;;;;;6.36;59.64;99649.38;8001715;28;20116;-62
2021/01/30 01:39:15;;;;;;;2.53;1.77;;;;;;;6.32;59.56;99655.75;8002257;28;20044;-64
2021/01/30 01:43:13;;;;;;;4.25;1.60;;;;;;;6.35;59.42;99672.00;8006520;28;20075;-65
2021/01/30 01:47:10;;;;;;;5.22;3.28;;;;;;;6.30;59.15;99676.72;8008134;28;20041;-64
2021/01/30 01:51:04;;;;;;;6.13;3.67;;;;;;;6.23;58.79;99683.28;8008644;28;20086;-64
2021/01/30 01:55:04;;;;;;;8.32;4.00;;;;;;;6.17;58.98;99680.25;7989642;28;20029;-64
2021/01/30 01:59:01;;;;;;;7.82;4.40;;;;;;;6.08;58.42;99695.56;8007929;28;20739;-64
2021/01/30 02:02:54;;;;;;;9.87;4.30;;;;;;;6.00;58.87;99703.06;8007762;28;20208;-62
2021/01/30 02:06:46;;;;;;;10.93;5.10;;;;;;;5.95;58.29;99699.06;8008470;28;20439;-64
2021/01/30 02:10:42;;;;;;;13.07;5.10;;;;;;;5.87;58.55;99694.38;7990499;28;20037;-63
2021/01/30 02:14:38;;;;;;;7.97;4.57;;;;;;;5.80;58.30;99705.28;7990896;28;20048;-64
2021/01/30 02:18:40;;;;;;;10.48;5.50;;;;;;;5.69;58.57;99695.53;8008209;28;20053;-64
2021/01/30 02:23:12;;;;;;;12.18;6.47;;;;;;;5.63;58.13;99706.38;8007588;28;20132;-64
2021/01/30 02:27:10;;;;;;;10.90;4.75;;;;;;;5.57;58.07;99701.53;8007731;28;20052;-62
2021/01/30 02:31:18;;;;;;;9.38;4.85;;;;;;;5.51;58.34;99714.97;8007547;28;20442;-62
2021/01/30 02:35:21;;;;;;;;;;;;;;;5.36;58.55;99718.50;7991005;28;20040;-63
2021/01/30 02:39:44;;;;;;;10.05;4.93;;;;;;;5.28;58.35;99703.38;8008110;28;20062;-64
2021/01/30 02:43:41;;;;;;;8.65;4.55;;;;;;;5.24;58.19;99716.69;8007265;28;20041;-63
2021/01/30 02:47:36;;;;;;;6.73;3.80;;;;;;;5.18;58.06;99723.97;8007668;28;20045;-64
2021/01/30 02:51:33;;;;;;;7.78;4.07;;;;;;;5.13;58.03;99727.72;7990100;28;20029;-64
2021/01/30 02:55:25;;;;;;;8.23;4.10;;;;;;;5.05;57.86;99727.38;8007526;28;20037;-62
2021/01/30 02:59:23;;;;;;;7.63;4.13;;;;;;;4.93;58.07;99715.94;8007394;28;20041;-63
2021/01/30 03:03:13;;;;;;;9.30;4.22;;;;;;;4.91;57.89;99720.41;8005763;28;20273;-64
2021/01/30 03:07:24;;;;;;;5.35;3.63;;;;;;;4.86;57.68;99725.03;7988034;28;20661;-64
2021/01/30 03:11:25;;;;;;;8.02;4.03;;;;;;;4.82;57.85;99725.31;8005830;28;20037;-62
2021/01/30 03:15:26;;;;;;;6.72;3.47;;;;;;;4.76;57.57;99728.28;8005635;28;20112;-64
2021/01/30 03:19:22;;;;;;;4.63;3.33;;;;;;;4.68;57.66;99723.56;8004052;28;20115;-64
2021/01/30 03:23:15;;;;;;;4.28;3.33;;;;;;;4.68;57.72;99729.59;8001679;28;20106;-63
2021/01/30 03:27:06;;;;;;;3.67;2.80;;;;;;;4.61;57.53;99730.88;8005283;28;20058;-65
2021/01/30 03:30:57;;;;;;;5.72;2.63;;;;;;;4.58;57.56;99736.25;8004624;28;20131;-64
2021/01/30 03:34:50;;;;;;;3.30;2.90;;;;;;;4.50;57.64;99738.47;8004631;28;20175;-63
2021/01/30 03:38:41;;;;;;;3.25;2.83;;;;;;;4.43;57.38;99737.19;8004906;28;20620;-64
2021/01/30 03:42:32;;;;;;;3.47;2.75;;;;;;;4.37;57.54;99744.47;8004605;28;20048;-63
2021/01/30 03:46:23;;;;;;;3.28;2.55;;;;;;;4.32;57.41;99746.53;7986263;28;20132;-62
2021/01/30 03:50:14;;;;;;;4.35;3.63;;;;;;;4.27;57.34;99752.00;8003938;28;20120;-63
2021/01/30 03:54:05;;;;;;;5.10;3.63;;;;;;;4.21;57.26;99749.72;8003601;28;20028;-64
2021/01/30 03:57:56;;;;;;;4.22;3.70;;;;;;;4.15;57.47;99755.28;8003832;28;20045;-64
2021/01/30 04:01:46;;;;;;;6.50;4.35;;;;;;;4.12;57.30;99750.25;8003086;28;20032;-62
2021/01/30 04:05:37;;;;;;;6.68;4.38;;;;;;;4.08;57.25;99748.75;8002730;28;20045;-63
2021/01/30 04:09:27;;;;;;;7.05;5.03;;;;;;;4.02;57.37;99759.50;8003227;28;20112;-63
2021/01/30 04:13:19;;;;;;;8.02;5.45;;;;;;;3.98;57.34;99758.00;8003158;28;20048;-63
2021/01/30 04:17:09;;;;;;;9.88;5.70;;;;;;;3.93;57.17;99745.28;8002106;28;20406;-63
2021/01/30 04:21:00;;;;;;;9.50;7.15;;;;;;;3.85;56.88;99751.81;8002574;28;20115;-64
2021/01/30 04:24:50;;;;;;;10.10;7.35;;;;;;;3.74;56.91;99745.44;8002177;28;20655;-63
2021/01/30 04:28:41;;;;;;;10.60;7.38;;;;;;;3.63;57.00;99752.16;8002820;28;20067;-63
2021/01/30 04:32:31;;;;;;;10.23;7.50;;;;;;;3.53;56.76;99743.22;7978197;28;20541;-64
2021/01/30 04:36:23;;;;;;;10.50;7.85;;;;;;;3.41;56.76;99760.28;7971113;28;20578;-63
2021/01/30 04:40:28;;;;;;;10.95;7.88;;;;;;;3.33;57.17;99752.91;7970637;28;20034;-62
2021/01/30 04:45:06;;;;;;;11.95;8.20;;;;;;;3.24;57.03;99755.16;7970149;28;20037;-63
2021/01/30 04:49:26;;;;;;;12.27;8.50;;;;;;;3.17;56.96;99759.81;7962719;28;20049;-64
2021/01/30 04:53:20;;;;;;;11.63;8.18;;;;;;;3.09;56.72;99767.16;7970397;28;20462;-64
2021/01/30 04:57:35;;;;;;;10.68;7.13;;;;;;;3.05;57.20;99754.44;7970298;28;20559;-63
2021/01/30 05:01:49;;;;;;;10.95;8.25;;;;;;;2.95;57.11;99746.28;7969465;28;20112;-62
2021/01/30 05:05:44;;;;;;;10.30;7.55;;;;;;;2.98;56.92;99745.28;7970359;28;20025;-64
2021/01/30 05:09:55;;;;;;;10.63;8.07;;;;;;;2.94;56.81;99744.63;7970318;28;20072;-62
2021/01/30 05:14:07;;;;;;;12.75;8.63;;;;;;;2.91;57.20;99762.09;7970083;28;20083;-64
2021/01/30 05:18:06;;;;;;;12.15;8.55;;;;;;;2.87;57.34;99758.81;7974141;28;20049;-64
2021/01/30 05:22:01;;;;;;;12.63;9.30;;;;;;;2.88;57.32;99750.13;7976233;28;20029;-64
2021/01/30 05:26:04;;;;;;;15.05;10.48;;;;;;;2.87;57.25;99756.22;7976111;28;20041;-62
2021/01/30 05:30:21;;;;;;;14.75;9.93;;;;;;;2.82;57.14;99748.69;7987965;28;20090;-65
2021/01/30 05:34:18;;;;;;;11.70;7.65;;;;;;;2.74;57.18;99750.81;8006784;28;20332;-63
2021/01/30 05:38:18;;;;;;;9.15;6.80;;;;;;;2.72;57.35;99760.44;8007495;28;20044;-64
2021/01/30 05:42:26;;;;;;;7.30;6.00;;;;;;;2.70;57.02;99769.25;8007434;28;20071;-64
2021/01/30 05:46:29;;;;;;;8.95;5.93;;;;;;;2.64;56.92;99757.41;8006053;28;20048;-63
2021/01/30 05:50:32;;;;;;;8.00;6.30;;;;;;;2.61;56.81;99759.31;8007638;28;20039;-65
2021/01/30 05:54:23;;;;;;;9.23;6.82;;;;;;;2.55;56.99;99762.22;8007334;28;20037;-64
2021/01/30 05:58:18;;;;;;;10.13;7.03;;;;;;;2.52;57.24;99763.22;8007092;28;20161;-65
2021/01/30 06:02:14;;;;;;;8.75;6.70;;;;;;;2.51;57.14;99747.72;8007769;28;20037;-65
2021/01/30 06:06:09;;;;;;;10.23;7.82;;;;;;;2.48;57.13;99753.06;8007944;28;20033;-65
2021/01/30 06:10:19;;;;;;;10.45;7.35;;;;;;;2.48;57.17;99759.09;8008216;28;20520;-65
2021/01/30 06:14:25;;;;;;;9.55;7.60;;;;;;;2.49;57.30;99760.78;8006055;28;20037;-64
2021/01/30 06:18:27;;;;;;;9.27;7.43;;;;;;;2.48;57.40;99759.09;8007730;28;20044;-65
2021/01/30 06:22:22;;;;;;;9.68;7.50;;;;;;;2.50;57.52;99767.63;8008052;28;20055;-65
2021/01/30 06:26:20;;;;;;;8.65;6.75;;;;;;;2.52;57.52;99770.16;8007404;28;20048;-63
2021/01/30 06:30:14;;;;;;;9.65;7.35;;;;;;;2.52;57.44;99783.97;8006281;28;20033;-64
2021/01/30 06:34:33;;;;;;;8.52;6.70;;;;;;;2.50;57.19;99775.41;7988359;28;20029;-64
2021/01/30 06:38:32;;;;;;;8.93;7.22;;;;;;;2.48;57.21;99777.25;7998137;28;20629;-64
2021/01/30 06:42:31;;;;;;;8.68;7.47;;;;;;;2.43;56.83;99761.94;8006825;28;20037;-64
2021/01/30 06:46:23;;;;;;;9.82;7.38;;;;;;;2.37;57.42;99766.59;8006304;28;20036;-63
2021/01/30 06:50:35;;;;;;;10.27;7.45;;;;;;;2.38;57.24;99773.41;8006655;28;20103;-66
2021/01/30 06:54:30;;;;;;;9.63;7.15;;;;;;;2.36;56.85;99775.28;8005601;28;20560;-65
2021/01/30 06:58:25;;;;;;;10.43;7.10;;;;;;;2.33;56.95;99781.41;8003102;28;20186;-64
2021/01/30 07:02:22;;;;;;;10.82;7.82;;;;;;;2.33;57.16;99791.78;7995421;28;20040;-63
2021/01/30 07:06:23;;;;;;;10.05;7.65;;;;;;;2.31;56.51;99795.38;8005607;28;20036;-64
2021/01/30 07:10:34;;;;;;;12.27;8.20;;;;;;;2.22;56.67;99785.47;8006064;28;20037;-61
2021/01/30 07:14:58;;;;;;;9.55;7.00;;;;;;;2.18;57.06;99789.13;8005440;28;20091;-63
2021/01/30 07:19:08;;;;;;;8.80;6.53;;;;;;;2.12;57.38;99776.47;8007035;28;20180;-64
2021/01/30 07:23:07;;;;;;;8.38;6.70;;;;;;;2.06;57.04;99776.75;8005660;28;20076;-64
2021/01/30 07:27:12;;;;;;;8.95;6.70;;;;;;;2.00;57.10;99777.88;8004963;28;20057;-62
2021/01/30 07:31:07;;;;;;;9.23;7.45;;;;;;;1.91;56.89;99774.00;7995712;28;20641;-64
2021/01/30 07:35:17;;;;;;;8.85;6.65;;;;;;;1.87;56.63;99780.22;7998348;28;20036;-62
2021/01/30 07:39:29;;;;;;;8.77;6.47;;;;;;;1.84;57.33;99771.75;8002424;28;20057;-63
2021/01/30 07:43:34;;;;;;;10.65;7.35;;;;;;;1.83;57.09;99772.69;8003130;28;20112;-64
2021/01/30 07:47:52;;;;;;;8.30;6.47;;;;;;;1.80;56.70;99768.47;7992017;28;20037;-62
2021/01/30 07:51:45;;;;;;;10.18;7.25;;;;;;;1.74;57.34;99773.97;7971806;28;20120;-63
2021/01/30 07:55:37;;;;;;;7.63;6.30;;;;;;;1.71;57.37;99770.69;7983694;28;20032;-64
2021/01/30 07:59:53;;;;;;;9.63;7.20;;;;;;;1.69;57.13;99781.09;7984612;28;20612;-64
2021/01/30 08:03:57;;;;;;;9.40;7.35;;;;;;;1.63;57.31;99781.38;7995665;28;20582;-64
2021/01/30 08:08:11;;;;;;;8.35;6.13;;;;;;;1.59;57.20;99785.00;7998513;28;20055;-64
2021/01/30 08:12:32;;;;;;;9.30;6.90;;;;;;;1.56;56.90;99781.72;8003301;28;20044;-64
2021/01/30 08:16:43;;;;;;;7.47;6.10;;;;;;;1.57;56.93;99781.66;8002690;28;20055;-63
2021/01/30 08:20:39;;;;;;;6.97;5.30;;;;;;;1.55;57.48;99777.44;8001146;28;20036;-63
2021/01/30 08:24:45;;;;;;;6.95;5.35;;;;;;;1.53;57.06;99774.13;8000088;28;20033;-63
2021/01/30 08:28:40;;;;;;;6.72;5.38;;;;;;;1.51;57.38;99776.75;7990273;28;20615;-63
2021/01/30 08:32:35;;;;;;;6.55;5.45;;;;;;;1.48;56.65;99769.16;7999956;28;20102;-63
2021/01/30 08:36:39;;;;;;;6.47;4.63;;;;;;;1.45;57.18;99769.28;8000146;28;20037;-64
2021/01/30 08:40:49;;;;;;;5.70;4.35;;;;;;;1.41;56.74;99772.94;8003045;28;20128;-64
2021/01/30 08:44:43;;;;;;;5.80;4.90;;;;;;;1.39;57.03;99769.56;8001420;28;20051;-64
2021/01/30 08:48:33;;;;;;;5.85;4.97;;;;;;;1.36;57.19;99760.19;8002032;28;20090;-64
2021/01/30 08:52:40;;;;;;;6.82;4.85;;;;;;;1.39;57.50;99760.06;7993081;28;20124;-64
2021/01/30 08:56:51;;;;;;;4.97;3.85;;;;;;;1.36;57.05;99751.59;7953176;28;20112;-63
2021/01/30 09:00:51;;;;;;;5.45;3.85;;;;;;;1.39;57.34;99756.63;7976571;28;20076;-62
2021/01/30 09:04:46;;;;;;;5.72;4.10;;;;;;;1.38;56.98;99762.69;7993475;28;20080;-63
2021/01/30 09:08:42;;;;;;;6.10;4.05;;;;;;;1.38;57.40;99770.47;7971789;28;20563;-64
2021/01/30 09:12:52;;;;;;;6.63;4.20;;;;;;;1.38;57.30;99765.28;7974152;28;20036;-61
2021/01/30 09:17:01;;;;;;;3.90;3.20;;;;;;;1.40;57.33;99764.31;7984891;28;20048;-63
2021/01/30 09:21:14;;;;;;;4.70;3.13;;;;;;;1.43;57.08;99771.09;7992525;28;20083;-64
2021/01/30 09:25:59;;;;;;;3.70;2.80;;;;;;;1.43;57.24;99760.75;7964481;28;20510;-63
2021/01/30 09:29:51;;;;;;;4.68;3.50;;;;;;;1.42;56.83;99772.00;7929463;28;20053;-63
2021/01/30 09:34:11;;;;;;;3.42;3.00;;;;;;;1.39;56.87;99766.97;7994062;28;20200;-64
2021/01/30 09:38:20;;;;;;;3.92;3.20;;;;;;;1.36;57.10;99757.59;7970284;28;20039;-64
2021/01/30 09:42:19;;;;;;;3.05;2.75;;;;;;;1.42;57.21;99759.06;7979749;28;20116;-63
2021/01/30 09:46:15;;;;;;;3.67;3.00;;;;;;;1.43;56.73;99751.22;7971165;28;20045;-64
2021/01/30 09:50:12;;;;;;;3.90;3.40;;;;;;;1.49;57.10;99760.47;7970938;28;20044;-62
2021/01/30 09:54:03;;;;;;;3.38;2.88;;;;;;;1.48;57.30;99751.88;7954336;28;20029;-64
2021/01/30 09:58:12;;;;;;;4.65;3.03;;;;;;;1.51;56.88;99761.22;7970667;28;20076;-63
2021/01/30 10:02:15;;;;;;;4.82;3.28;;;;;;;1.58;57.61;99747.13;7970358;28;20764;-61
2021/01/30 10:06:33;;;;;;;5.28;3.35;;;;;;;1.64;56.72;99751.16;7996178;28;20037;-63
2021/01/30 10:10:26;;;;;;;3.72;3.20;;;;;;;1.68;57.00;99747.50;7996446;28;20630;-62
2021/01/30 10:14:19;;;;;;;5.38;3.75;;;;;;;1.70;56.79;99743.94;7998598;28;20421;-64
2021/01/30 10:18:14;;;;;;;4.20;3.30;;;;;;;1.72;56.70;99736.94;7998439;28;20067;-61
2021/01/30 10:22:19;;;;;;;7.70;3.55;;;;;;;1.74;56.71;99727.34;7986097;28;20040;-63
2021/01/30 10:26:12;;;;;;;3.65;3.10;;;;;;;1.76;57.26;99725.50;7997577;28;20089;-63
2021/01/30 10:30:07;;;;;;;4.07;3.38;;;;;;;1.79;57.35;99725.34;7997049;28;20041;-64
2021/01/30 10:34:10;;;;;;;4.10;3.00;;;;;;;1.77;57.22;99713.41;7995243;28;20044;-63
2021/01/30 10:38:27;;;;;;;4.25;3.30;;;;;;;1.88;56.91;99717.16;7998500;28;21985;-64
2021/01/30 10:42:24;;;;;;;5.25;3.47;;;;;;;1.93;57.39;99709.16;7994042;28;20055;-64
2021/01/30 10:46:23;;;;;;;4.00;2.70;;;;;;;1.94;57.12;99716.88;7997143;28;20059;-60
2021/01/30 10:50:20;;;;;;;3.80;2.88;;;;;;;1.95;57.05;99709.94;7994832;28;21914;-63
2021/01/30 10:54:21;;;;;;;4.82;2.95;;;;;;;1.96;57.15;99709.84;7996339;28;20060;-63
2021/01/30 10:58:20;;;;;;;6.32;3.25;;;;;;;1.93;56.85;99704.81;7995479;28;20051;-64
2021/01/30 11:02:36;;;;;;;4.20;3.03;;;;;;;1.91;57.02;99703.22;7992610;28;20041;-65
2021/01/30 11:06:39;;;;;;;2.70;2.47;;;;;;;1.86;56.28;99700.88;7979329;28;21560;-64
2021/01/30 11:10:43;;;;;;;4.13;2.75;;;;;;;1.86;56.70;99702.63;7994715;28;20044;-65
2021/01/30 11:14:34;;;;;;;3.47;2.85;;;;;;;1.85;56.33;99695.75;7994806;28;20040;-64
2021/01/30 11:18:28;;;;;;;3.03;2.72;;;;;;;1.85;57.00;99694.00;7994966;28;20064;-65
2021/01/30 11:22:23;;;;;;;2.75;2.40;;;;;;;1.88;56.81;99693.84;7993519;28;20037;-63
2021/01/30 11:26:40;;;;;;;2.40;2.20;;;;;;;1.89;56.66;99686.91;7994312;28;20079;-63
2021/01/30 11:30:31;;;;;;;5.00;2.30;;;;;;;1.88;56.97;99683.47;7991491;28;20060;-64
2021/01/30 11:34:24;;;;;;;2.10;1.80;;;;;;;1.87;57.01;99673.22;7993956;28;20533;-66
2021/01/30 11:38:24;;;;;;;1.83;1.63;;;;;;;1.93;56.32;99663.38;7985004;28;20465;-65
2021/01/30 11:42:14;;;;;;;2.78;2.20;;;;;;;2.00;57.00;99666.50;7993988;28;20477;-65
2021/01/30 11:46:05;;;;;;;2.88;2.20;;;;;;;2.07;57.04;99654.94;7994460;28;20048;-63
2021/01/30 11:49:56;;;;;;;3.58;2.60;;;;;;;2.15;57.05;99657.13;7997021;28;20049;-65
2021/01/30 11:53:46;;;;;;;2.75;2.35;;;;;;;2.15;56.29;99645.03;7992115;28;20117;-64
2021/01/30 11:57:37;;;;;;;3.25;2.33;;;;;;;2.15;56.59;99647.63;7996656;28;20023;-65
2021/01/30 12:01:28;;;;;;;2.70;2.30;;;;;;;2.16;56.13;99633.75;7982739;28;20460;-65
2021/01/30 12:05:19;;;;;;;2.10;1.90;;;;;;;2.22;56.65;99627.41;7995701;28;20021;-65
2021/01/30 12:09:09;;;;;;;3.17;2.20;;;;;;;2.24;56.44;99621.25;7995965;28;20037;-64
2021/01/30 12:13:00;;;;;;;2.60;2.28;;;;;;;2.28;56.31;99624.50;7993792;28;20086;-65
2021/01/30 12:16:54;;;;;;;2.90;2.25;;;;;;;2.29;56.50;99616.63;7992637;28;20064;-64
2021/01/30 12:20:46;;;;;;;3.15;2.30;;;;;;;2.31;56.62;99619.16;7994476;28;20504;-63
2021/01/30 12:24:36;;;;;;;2.78;2.47;;;;;;;2.31;56.16;99616.56;7994651;28;20021;-65
2021/01/30 12:28:33;;;;;;;2.75;2.20;;;;;;;2.29;56.14;99603.66;7996239;28;20674;-65
2021/01/30 12:32:24;;;;;;;3.30;2.30;;;;;;;2.30;56.31;99587.22;7991395;28;20442;-65
2021/01/30 12:36:15;;;;;;;3.67;2.72;;;;;;;2.36;56.64;99597.28;7994391;28;20025;-64
2021/01/30 12:40:07;;;;;;;2.60;2.40;;;;;;;2.37;56.66;99582.56;7995172;28;20497;-63
2021/01/30 12:43:57;;;;;;;3.30;2.33;;;;;;;2.40;56.28;99578.06;7995964;28;20813;-63
2021/01/30 12:47:48;;;;;;;3.58;2.30;;;;;;;2.47;56.92;99591.50;7996286;28;20494;-64
2021/01/30 12:51:40;;;;;;;2.78;2.38;;;;;;;2.46;56.47;99579.47;7984574;28;20090;-65
2021/01/30 12:55:31;;;;;;;4.05;2.60;;;;;;;2.53;56.58;99572.22;7995568;28;20796;-65
2021/01/30 12:59:21;;;;;;;2.80;2.22;;;;;;;2.52;56.78;99558.41;7994407;28;20106;-65
2021/01/30 13:03:13;;;;;;;6.68;3.63;;;;;;;2.63;56.24;99563.00;7980249;28;20048;-64
2021/01/30 13:07:04;;;;;;;2.97;2.47;;;;;;;2.62;56.35;99561.38;7971479;28;20041;-65
2021/01/30 13:10:55;;;;;;;2.95;2.22;;;;;;;2.66;56.17;99566.28;7997287;28;20041;-64
2021/01/30 13:14:45;;;;;;;2.47;1.92;;;;;;;2.67;56.41;99561.94;7995573;28;20889;-65
2021/01/30 13:18:36;;;;;;;2.10;1.65;;;;;;;2.69;56.06;99568.72;7996223;28;20052;-65
2021/01/30 13:22:27;;;;;;;2.50;2.03;;;;;;;2.69;56.46;99576.50;7992466;28;20033;-64
2021/01/30 13:26:18;;;;;;;2.63;2.08;;;;;;;2.69;56.09;99570.47;7985917;28;20036;-63
2021/01/30 13:30:13;;;;;;;2.50;2.00;;;;;;;2.65;56.16;99550.81;7994115;28;20974;-64
2021/01/30 13:34:03;;;;;;;2.58;2.30;;;;;;;2.64;56.01;99546.53;7988638;28;21279;-65
2021/01/30 13:37:54;;;;;;;3.08;2.25;;;;;;;2.61;55.49;99542.38;7994403;28;20033;-65
2021/01/30 13:41:46;;;;;;;3.05;2.15;;;;;;;2.64;56.37;99531.81;7994436;28;20047;-64
2021/01/30 13:45:36;;;;;;;2.22;1.77;;;;;;;2.66;55.96;99529.97;7997462;28;20041;-66
2021/01/30 13:49:27;;;;;;;2.97;1.98;;;;;;;2.66;55.42;99531.75;7996897;28;20052;-66
2021/01/30 13:53:17;;;;;;;3.03;1.98;;;;;;;2.65;56.14;99535.25;7993613;28;20041;-66
2021/01/30 13:57:08;;;;;;;2.15;1.90;;;;;;;2.65;55.54;99546.47;7984869;28;20041;-65
2021/01/30 14:00:59;;;;;;;2.80;1.88;;;;;;;2.61;55.61;99529.41;7994576;28;20060;-65
2021/01/30 14:04:49;;;;;;;1.90;1.60;;;;;;;2.60;55.39;99530.31;7993359;28;20044;-65
2021/01/30 14:08:40;;;;;;;2.42;1.60;;;;;;;2.65;56.00;99541.28;7996394;28;20021;-66
2021/01/30 14:12:31;;;;;;;2.20;1.63;;;;;;;2.66;55.65;99547.31;7994023;28;20029;-62
2021/01/30 14:16:21;;;;;;;2.65;1.77;;;;;;;2.66;55.39;99555.09;7994451;28;20033;-65
2021/01/30 14:20:12;;;;;;;2.03;1.52;;;;;;;2.59;55.61;99539.00;7994826;28;20055;-66
2021/01/30 14:24:03;;;;;;;1.92;1.60;;;;;;;2.60;55.26;99545.03;7993432;28;20029;-64
2021/01/30 14:27:55;;;;;;;2.22;1.65;;;;;;;2.59;55.35;99548.53;7995985;28;20124;-65
2021/01/30 14:31:46;;;;;;;1.92;1.58;;;;;;;2.60;55.54;99551.06;7983373;28;20164;-65
2021/01/30 14:35:36;;;;;;;2.30;1.40;;;;;;;2.58;56.06;99547.69;7984148;28;20032;-65
2021/01/30 14:39:27;;;;;;;2.28;1.75;;;;;;;2.62;55.93;99551.81;7986156;28;20033;-66
2021/01/30 14:43:17;;;;;;;1.85;1.50;;;;;;;2.59;55.63;99540.75;7993236;28;20032;-64
2021/01/30 14:47:08;;;;;;;1.88;1.40;;;;;;;2.59;55.27;99541.59;7993101;28;20046;-65
2021/01/30 14:50:59;;;;;;;1.88;1.48;;;;;;;2.61;55.37;99537.19;7992144;28;20452;-65
2021/01/30 14:54:49;;;;;;;1.75;1.45;;;;;;;2.58;55.66;99537.31;7987115;28;20037;-65
2021/01/30 14:58:40;;;;;;;2.20;1.55;;;;;;;2.53;55.59;99523.81;7945579;28;20501;-65
2021/01/30 15:02:31;;;;;;;1.48;1.38;;;;;;;2.57;55.28;99533.09;7987224;28;20044;-66
2021/01/30 15:06:21;;;;;;;1.30;1.20;;;;;;;2.57;55.26;99537.44;7989109;28;20029;-66
2021/01/30 15:10:15;;;;;;;1.73;1.30;;;;;;;2.57;55.61;99537.44;7984945;28;20045;-66
2021/01/30 15:14:05;;;;;;;1.98;1.60;;;;;;;2.55;55.43;99539.25;7988464;28;20175;-64
2021/01/30 15:17:56;;;;;;;1.67;1.33;;;;;;;2.56;55.43;99538.34;7988678;28;20033;-64
2021/01/30 15:21:47;;;;;;;1.27;1.10;;;;;;;2.57;55.62;99537.44;7988202;28;20102;-65
2021/01/30 15:25:38;;;;;;;1.52;1.20;;;;;;;2.52;55.21;99524.72;7965288;28;20109;-63
2021/01/30 15:29:28;;;;;;;1.60;1.00;;;;;;;2.56;55.44;99538.34;7992812;28;20028;-64
2021/01/30 15:33:19;;;;;;;1.70;1.10;;;;;;;2.57;55.13;99546.06;7981559;28;20033;-65
2021/01/30 15:37:12;;;;;;;1.27;1.10;;;;;;;2.56;55.50;99539.19;7989603;28;20052;-63
2021/01/30 15:41:03;;;;;;;1.45;1.10;;;;;;;2.59;55.32;99543.34;7990228;28;20111;-65
2021/01/30 15:44:54;;;;;;;1.30;1.20;;;;;;;2.58;55.14;99552.88;7981632;28;20040;-63
2021/01/30 15:48:45;;;;;;;1.02;0.95;;;;;;;2.59;55.41;99548.53;7988543;28;20577;-63
2021/01/30 15:52:36;;;;;;;1.42;1.10;;;;;;;2.58;55.52;99546.88;7987741;28;20047;-65
2021/01/30 15:56:26;;;;;;;1.20;1.08;;;;;;;2.56;55.20;99534.00;7981250;28;20025;-63
2021/01/30 16:00:20;;;;;;;2.38;1.25;;;;;;;2.55;55.11;99542.69;7989142;28;20064;-64
2021/01/30 16:04:13;;;;;;;1.20;1.10;;;;;;;2.53;54.96;99541.94;7988792;28;20036;-65
2021/01/30 16:08:03;;;;;;;2.05;1.10;;;;;;;2.49;54.45;99547.38;7989595;28;20523;-64
2021/01/30 16:11:54;;;;;;;1.30;1.20;;;;;;;2.47;54.84;99546.59;7979213;28;20037;-66
2021/01/30 16:15:45;;;;;;;1.35;1.10;;;;;;;2.42;54.55;99554.63;7987505;28;20049;-64
2021/01/30 16:19:35;;;;;;;1.20;1.05;;;;;;;2.39;54.45;99559.97;7988462;28;20036;-65
2021/01/30 16:23:29;;;;;;;1.10;1.00;;;;;;;2.36;54.94;99567.94;7987261;28;20047;-66
2021/01/30 16:27:19;;;;;;;2.30;1.50;;;;;;;2.35;54.37;99568.84;7988591;28;20021;-64
2021/01/30 16:31:10;;;;;;;1.55;1.30;;;;;;;2.31;54.15;99575.09;7986281;28;20040;-62
2021/01/30 16:35:01;;;;;;;1.58;1.25;;;;;;;2.30;54.60;99571.66;7978912;28;20032;-64
2021/01/30 16:38:52;;;;;;;1.30;1.13;;;;;;;2.29;54.46;99577.75;7967018;28;20036;-64
2021/01/30 16:42:42;;;;;;;1.50;1.20;;;;;;;2.29;55.07;99584.69;7990388;28;20105;-65
2021/01/30 16:46:33;;;;;;;1.85;1.38;;;;;;;2.26;54.47;99593.47;7989633;28;20631;-63
2021/01/30 16:50:24;;;;;;;1.30;1.20;;;;;;;2.23;54.41;99591.06;7989592;28;20047;-65
2021/01/30 16:54:14;;;;;;;1.70;1.27;;;;;;;2.25;54.60;99599.56;7991375;28;20124;-64
2021/01/30 16:58:06;;;;;;;1.70;1.30;;;;;;;2.24;54.30;99605.69;7991685;28;20797;-66
2021/01/30 17:01:57;;;;;;;2.30;1.40;;;;;;;2.23;54.15;99597.97;7989791;28;20041;-65
2021/01/30 17:05:48;;;;;;;2.00;1.25;;;;;;;2.21;54.15;99605.81;7987282;28;20537;-63
2021/01/30 17:09:38;;;;;;;2.35;1.42;;;;;;;2.19;54.19;99618.03;7975882;28;20040;-65
2021/01/30 17:13:30;;;;;;;2.92;1.42;;;;;;;2.17;54.63;99613.84;7994041;28;20025;-63
2021/01/30 17:17:21;;;;;;;3.35;1.40;;;;;;;2.15;54.45;99616.53;7998346;28;20048;-64
2021/01/30 17:21:12;;;;;;;2.42;1.40;;;;;;;2.10;54.22;99617.66;7997983;28;20043;-63
2021/01/30 17:25:03;;;;;;;1.20;1.10;;;;;;;2.18;54.56;99638.84;7995942;28;20025;-66
2021/01/30 17:28:54;;;;;;;2.95;1.27;;;;;;;2.19;54.36;99635.34;7997583;28;20195;-64
2021/01/30 17:32:45;;;;;;;1.50;1.40;;;;;;;2.20;54.64;99637.03;7993478;28;20049;-62
2021/01/30 17:36:38;;;;;;;2.28;1.50;;;;;;;2.19;54.75;99650.88;7995638;28;20044;-64
2021/01/30 17:40:29;;;;;;;2.55;1.65;;;;;;;2.20;54.41;99649.97;7997119;28;20047;-66
2021/01/30 17:44:21;;;;;;;3.25;1.73;;;;;;;2.19;54.28;99651.72;7983549;28;20033;-66
2021/01/30 17:48:11;;;;;;;1.90;1.63;;;;;;;2.16;54.70;99645.88;7992819;28;20691;-65
2021/01/30 17:52:05;;;;;;;2.00;1.50;;;;;;;2.14;54.84;99658.88;7983576;28;20044;-65
2021/01/30 17:55:55;;;;;;;2.50;1.73;;;;;;;2.10;54.77;99664.28;7997438;28;20066;-65
2021/01/30 17:59:46;;;;;;;2.10;1.50;;;;;;;2.08;54.11;99663.56;7996252;28;20032;-62
2021/01/30 18:03:37;;;;;;;4.03;2.33;;;;;;;2.03;54.55;99657.75;7993706;28;20109;-65
2021/01/30 18:07:27;;;;;;;2.55;1.52;;;;;;;2.02;54.85;99671.59;7995987;28;20039;-65
2021/01/30 18:11:18;;;;;;;2.63;1.83;;;;;;;2.03;54.39;99675.88;7992780;28;20044;-65
2021/01/30 18:15:13;;;;;;;3.03;1.77;;;;;;;2.05;54.87;99681.81;7996208;28;20714;-65
2021/01/30 18:19:03;;;;;;;1.90;1.48;;;;;;;2.04;54.46;99674.97;7994331;28;20492;-65
2021/01/30 18:22:54;;;;;;;2.22;1.55;;;;;;;2.01;54.75;99681.13;7994375;28;20705;-65
2021/01/30 18:26:46;;;;;;;6.20;1.60;;;;;;;1.99;54.27;99692.50;7995697;28;20039;-65
2021/01/30 18:30:38;;;;;;;2.22;1.67;;;;;;;1.97;54.25;99692.56;7994531;28;20036;-66
2021/01/30 18:34:29;;;;;;;2.75;2.00;;;;;;;1.99;55.10;99705.44;7979269;28;20028;-66
2021/01/30 18:38:20;;;;;;;1.95;1.65;;;;;;;1.90;54.41;99689.44;7996880;28;20041;-66
2021/01/30 18:42:11;;;;;;;2.17;1.77;;;;;;;1.92;54.64;99699.72;7985308;28;20179;-66
2021/01/30 18:46:01;;;;;;;3.75;1.75;;;;;;;1.90;54.28;99686.00;7993484;28;20542;-67